createdAt,value
2023-03-23T16:01:33.818Z,100075.41
2023-03-23T16:06:36.767Z,100081.50
2023-03-23T16:11:38.977Z,100081.69
2023-03-23T16:16:51.103Z,100084.59
2023-03-23T16:21:53.488Z,100088.78
2023-03-23T16:26:55.988Z,100094.31
2023-03-23T16:31:58.331Z,100090.44
2023-03-23T16:37:00.700Z,100091.69
2023-03-23T16:42:03.232Z,100107.59
2023-03-23T16:47:05.410Z,100111.75
2023-03-23T16:52:07.723Z,100114.63
2023-03-23T16:57:11.553Z,100107.88
2023-03-23T17:02:13.840Z,100110.63
2023-03-23T17:07:16.454Z,100124.91
2023-03-23T17:12:18.791Z,100113.41
2023-03-23T17:17:21.166Z,100124.91
2023-03-23T17:22:24.262Z,100119.72
2023-03-23T17:27:26.505Z,100128.78
2023-03-23T17:32:28.789Z,100128.47
2023-03-23T17:37:31.569Z,100137.09
2023-03-23T17:42:33.938Z,100139.69
2023-03-23T17:47:36.311Z,100139.34
2023-03-23T17:52:38.546Z,100144.91
2023-03-23T17:57:41.402Z,100146.22
2023-03-23T18:02:44.295Z,100147.75
2023-03-23T18:07:46.619Z,100157.00
2023-03-23T18:12:51.236Z,100157.09
2023-03-23T18:17:53.607Z,100163.00
2023-03-23T18:22:56.253Z,100166.37
2023-03-23T18:27:58.448Z,100179.22
2023-03-23T18:33:07.988Z,100183.25
2023-03-23T18:38:11.437Z,100178.41
2023-03-23T18:43:13.728Z,100176.72
2023-03-23T18:48:16.030Z,100190.47
2023-03-23T18:53:19.123Z,100180.31
2023-03-23T18:58:22.086Z,100184.34
2023-03-23T19:03:24.763Z,100180.63
2023-03-23T19:08:29.051Z,100184.81
2023-03-23T19:13:37.576Z,100187.13
2023-03-23T19:18:41.507Z,100187.78
2023-03-23T19:23:43.844Z,100171.31
2023-03-23T19:29:21.490Z,100175.87
2023-03-23T19:34:08.838Z,100178.09
2023-03-23T19:39:11.336Z,100180.53
2023-03-23T19:44:13.925Z,100189.44
2023-03-23T19:49:16.393Z,100199.44
2023-03-23T19:54:19.131Z,100195.16
2023-03-23T19:59:21.403Z,100204.88
2023-03-23T20:04:24.989Z,100209.69
2023-03-23T20:09:27.548Z,100208.88
2023-03-23T20:14:30.423Z,100216.53
2023-03-23T20:19:32.683Z,100214.44
2023-03-23T20:24:34.858Z,100214.53
2023-03-23T20:29:37.139Z,100221.97
2023-03-23T20:34:39.409Z,100220.72
2023-03-23T20:39:42.292Z,100218.72
2023-03-23T20:44:44.784Z,100217.34
2023-03-23T20:49:53.265Z,100218.59
2023-03-23T20:54:56.316Z,100226.72
2023-03-23T20:59:58.773Z,100220.06
2023-03-23T21:05:05.081Z,100202.69
2023-03-23T21:10:07.334Z,100216.31
2023-03-23T21:15:10.189Z,100208.75
2023-03-23T21:20:13.138Z,100209.75
2023-03-23T21:25:15.506Z,100201.62
2023-03-23T21:30:19.176Z,100189.44
2023-03-23T21:35:21.589Z,100187.59
2023-03-23T21:40:24.110Z,100204.00
2023-03-23T21:45:27.046Z,100212.50
2023-03-23T21:50:30.064Z,100219.59
2023-03-23T21:55:33.642Z,100215.06
2023-03-23T22:00:35.896Z,100221.47
2023-03-23T22:05:40.317Z,100209.25
2023-03-23T22:10:43.552Z,100199.22
2023-03-23T22:16:05.663Z,100202.44
2023-03-23T22:21:08.273Z,100218.53
2023-03-23T22:26:12.173Z,100214.91
2023-03-23T22:31:18.655Z,100226.78
2023-03-23T22:36:22.810Z,100228.09
2023-03-23T22:41:28.656Z,100223.06
2023-03-23T22:46:31.553Z,100236.34
2023-03-23T22:51:33.797Z,100240.22
2023-03-23T22:56:37.465Z,100235.84
2023-03-23T23:01:39.826Z,100232.16
2023-03-23T23:06:42.104Z,100236.09
2023-03-23T23:11:44.318Z,100244.63
2023-03-23T23:16:47.459Z,100236.41
2023-03-23T23:21:50.444Z,100237.63
2023-03-23T23:26:53.317Z,100239.63
2023-03-23T23:31:55.941Z,100238.78
2023-03-23T23:36:59.644Z,100224.41
2023-03-23T23:42:01.858Z,100241.44
2023-03-23T23:47:04.867Z,100241.53
2023-03-23T23:52:08.737Z,100233.94
2023-03-23T23:57:11.068Z,100232.31
